Whetstone, United Kingdom
Current Conditions -  °F | °C
As of 8:11 AM on Thursday 27 Nov 2014 (Local Time) from EGWU Reporting Station
Moderate Fog Moderate Fog  
Wind Chill: 46°   Ceiling: 100
Heat Index: 48°   Visibility: 0.56mi
Dew Point: 46°   Wind: 5mph
Humidity: 93%   Direction: 210°SSW
Pressure: 29.62"   Gusts: NA
Location:  51.63°N, 0.16°W
Report Text: EGWU 270811Z 21004KT 0900 FG BKN001 OVC002 09/08 Q1003 RED BECMG 2000 BR BKN002 AMB
Loading
Personal Weather Stations






























Interactive Weather Map New forecast layout! Learn more

10-Day Weather Forecast

Advertisements
Track Severe Weather on mobile